Patrick J. Studdert — WDG4262 — position and weather

sailwx.info

Track history (hours):
 
Tides and Currents Weather Stations Pressure Air Temp Water Temp Dewpoint Dewpoint Depression Visibility Wind Speed Wind Dir Waves Ship Positions

Patrick J. Studdert

Owner: SHAMROCK MARINE L.L.C., Kingwood, TX. More information available from US FCC via Universal Licensing System and Coast Guard Vessel Documentation Center.

Last reported at 2018-Feb-23 09:59 UTC. Time now 2018-Feb-23 10:30 UTC.
Position N 29°44' W 095°03'.

Length 100 m; draft 2.9 m.

Type: Towing. MMSI: 367534690.

Date/timePositionNaut miles runAvg speedWind from/ knotsBaromVisibWave heightAir tempDewpointWater temp
2018-Feb-23 09:59N 29°44' W 095°03'0 0.4
2018-Feb-23 09:25N 29°44' W 095°03'0 0.0
2018-Feb-23 08:54N 29°44' W 095°03'0 0.0
2018-Feb-23 08:21N 29°44' W 095°03'0 0.0
2018-Feb-23 07:51N 29°44' W 095°03'1 3.9
2018-Feb-23 07:29N 29°45' W 095°04'3 0.4
2018-Feb-23 00:10N 29°44' W 095°07'0 0.0
2018-Feb-22 23:48N 29°44' W 095°07'2 5.8
2018-Feb-22 23:29N 29°44' W 095°09'1 1.4
2018-Feb-22 22:44N 29°45' W 095°10'0 0.0
2018-Feb-22 22:30N 29°45' W 095°10'0 0.0
2018-Feb-22 22:00N 29°45' W 095°10'0 0.0
2018-Feb-22 21:21N 29°45' W 095°10'0 0.0
2018-Feb-22 20:57N 29°45' W 095°10'0 0.0
2018-Feb-22 20:30N 29°45' W 095°10'0 0.0
2018-Feb-22 20:00N 29°45' W 095°10'0 0.0
2018-Feb-22 19:21N 29°45' W 095°10'0 0.0
2018-Feb-22 18:56N 29°45' W 095°10'0 0.0
2018-Feb-22 18:28N 29°45' W 095°10'0 0.0
2018-Feb-22 18:00N 29°45' W 095°10'0 0.0
2018-Feb-22 17:08N 29°45' W 095°10'0 0.0
2018-Feb-22 16:57N 29°45' W 095°10'0 0.0
2018-Feb-22 16:01N 29°45' W 095°10'0 0.0
2018-Feb-22 16:00N 29°45' W 095°10'0 0.0
2018-Feb-22 15:29N 29°45' W 095°10'0 0.0
2018-Feb-22 14:59N 29°45' W 095°10'0 0.0
2018-Feb-22 13:53N 29°45' W 095°10'0 0.0
2018-Feb-22 13:30N 29°45' W 095°10'0 0.3
2018-Feb-22 12:56N 29°45' W 095°10'3 6.0
2018-Feb-22 12:26N 29°44' W 095°07'2 0.3
2018-Feb-22 05:34N 29°46' W 095°06'0 2.6
2018-Feb-22 05:29N 29°46' W 095°06'2 3.2
2018-Feb-22 04:53N 29°45' W 095°04'2 4.8
2018-Feb-22 04:30N 29°44' W 095°03'2 3.8
2018-Feb-22 04:00N 29°43' W 095°01'2 4.9
2018-Feb-22 03:30N 29°41' W 094°59'3 5.0
2018-Feb-22 03:00N 29°39' W 094°58'3 5.0
2018-Feb-22 02:30N 29°36' W 094°57'2 4.6
2018-Feb-22 02:00N 29°34' W 094°56'2 4.4
2018-Feb-22 01:29N 29°33' W 094°54'2 4.6
2018-Feb-22 01:00N 29°31' W 094°53'9 3.7
2018-Feb-21 22:37N 29°22' W 094°50'1 5.9
2018-Feb-21 22:30N 29°22' W 094°51'18 0.5
2018-Feb-20 08:22N 29°40' W 094°58'1820.6
2018-Feb-20 07:29N 29°22' W 094°53'1 0.1
2018-Feb-20 00:28N 29°23' W 094°53'1 0.4
2018-Feb-19 21:41N 29°22' W 094°54'0 0.0
2018-Feb-19 21:05N 29°22' W 094°54'0 0.0
2018-Feb-19 20:56N 29°22' W 094°54'0 0.0
2018-Feb-19 20:29N 29°22' W 094°54'0 0.0
2018-Feb-19 19:56N 29°22' W 094°54'0 0.0
2018-Feb-19 19:20N 29°22' W 094°54'0 0.0
2018-Feb-19 18:08N 29°22' W 094°54'0 0.0
2018-Feb-19 17:35N 29°22' W 094°54'0 0.0
2018-Feb-19 17:26N 29°22' W 094°54'0 0.0
2018-Feb-19 16:59N 29°22' W 094°54'0 0.0
2018-Feb-19 16:17N 29°22' W 094°54'0 0.7
2018-Feb-19 16:00N 29°22' W 094°53'1 2.1
2018-Feb-19 15:25N 29°23' W 094°52'0 0.0
2018-Feb-19 14:58N 29°23' W 094°52'0 0.0
2018-Feb-19 14:04N 29°23' W 094°52'0 0.0
2018-Feb-19 13:58N 29°23' W 094°52'0 0.0
2018-Feb-19 13:25N 29°23' W 094°52'0 0.0
2018-Feb-19 12:58N 29°23' W 094°52'0 0.0
2018-Feb-19 12:10N 29°23' W 094°52'0 0.0
2018-Feb-19 11:43N 29°23' W 094°52'0 0.0
2018-Feb-19 11:19N 29°23' W 094°52'0 0.0
2018-Feb-19 10:58N 29°23' W 094°52'0 0.0
2018-Feb-19 10:22N 29°23' W 094°52'0 0.0
2018-Feb-19 09:49N 29°23' W 094°52'0 0.0
2018-Feb-19 09:22N 29°23' W 094°52'0 0.0
2018-Feb-19 08:55N 29°23' W 094°52'0 0.0
2018-Feb-19 08:22N 29°23' W 094°52'0 0.0
2018-Feb-19 07:55N 29°23' W 094°52'0 0.0
2018-Feb-19 07:28N 29°23' W 094°52'0 0.0
2018-Feb-19 06:53N 29°23' W 094°52'0 0.0
2018-Feb-19 06:29N 29°23' W 094°52'0 0.0
2018-Feb-19 05:56N 29°23' W 094°52'0 0.0
2018-Feb-19 05:26N 29°23' W 094°52'0 0.0
2018-Feb-19 04:56N 29°23' W 094°52'0 0.0
2018-Feb-19 04:30N 29°23' W 094°52'0 0.0
2018-Feb-19 03:57N 29°23' W 094°52'0 0.0
2018-Feb-18 23:43N 29°23' W 094°52'1 0.4
2018-Feb-18 20:05N 29°22' W 094°54'1 5.4
2018-Feb-18 19:59N 29°22' W 094°53'1 1.2
2018-Feb-18 19:08N 29°23' W 094°52'0 0.0
2018-Feb-18 18:50N 29°23' W 094°52'0 0.0
2018-Feb-18 17:56N 29°23' W 094°52'0 0.0
2018-Feb-18 17:23N 29°23' W 094°52'0 0.0
2018-Feb-18 16:59N 29°23' W 094°52'0 0.0
2018-Feb-18 16:20N 29°23' W 094°52'0 0.0
2018-Feb-18 15:59N 29°23' W 094°52'0 0.0
2018-Feb-18 14:35N 29°23' W 094°52'0 0.0
2018-Feb-18 11:38N 29°23' W 094°52'0 0.0
2018-Feb-18 11:08N 29°23' W 094°52'0 0.0
2018-Feb-18 10:47N 29°23' W 094°52'0 0.0
2018-Feb-18 07:50N 29°23' W 094°52'0 0.0
2018-Feb-18 07:14N 29°23' W 094°52'0 0.0
2018-Feb-18 06:59N 29°23' W 094°52'0 0.0
2018-Feb-17 21:26N 29°23' W 094°52'0 0.0
2018-Feb-17 11:29N 29°23' W 094°52'0 0.0
2018-Feb-17 09:53N 29°23' W 094°52'0 0.0
2018-Feb-17 09:11N 29°23' W 094°52'0 0.0
2018-Feb-17 08:51N 29°23' W 094°52'0 0.0
2018-Feb-17 07:54N 29°23' W 094°52'0 0.0
2018-Feb-17 06:51N 29°23' W 094°52'0 0.0
2018-Feb-17 06:24N 29°23' W 094°52'0 0.0
2018-Feb-17 06:00N 29°23' W 094°52'0 0.0
2018-Feb-17 04:24N 29°23' W 094°52'0 0.0
2018-Feb-17 04:00N 29°23' W 094°52'0 0.0
2018-Feb-17 03:27N 29°23' W 094°52'0 0.0
2018-Feb-17 02:57N 29°23' W 094°52'0 0.0
2018-Feb-17 02:18N 29°23' W 094°52'0 0.0
2018-Feb-17 01:51N 29°23' W 094°52'0 0.0
2018-Feb-17 01:15N 29°23' W 094°52'0 0.0
2018-Feb-17 00:51N 29°23' W 094°52'0 0.0
2018-Feb-17 00:24N 29°23' W 094°52'0 0.0
2018-Feb-16 23:57N 29°23' W 094°52'0 0.0
2018-Feb-16 23:27N 29°23' W 094°52'1 3.0
2018-Feb-16 23:00N 29°22' W 094°51'4 2.1
2018-Feb-16 21:09N 29°26' W 094°50'0 1.7
2018-Feb-16 21:00N 29°27' W 094°50'3 5.3
2018-Feb-16 20:30N 29°29' W 094°52'4 7.4
2018-Feb-16 20:00N 29°32' W 094°54'3 6.0
2018-Feb-16 19:30N 29°34' W 094°56'4 7.8
2018-Feb-16 19:00N 29°38' W 094°58'4 8.4
2018-Feb-16 18:30N 29°42' W 094°60'3 6.9
2018-Feb-16 18:00N 29°44' W 095°03'3 6.3
2018-Feb-16 17:30N 29°46' W 095°06'1 1.1
2018-Feb-16 17:00N 29°46' W 095°06'1 1.3
2018-Feb-16 16:24N 29°46' W 095°05'0 0.0
2018-Feb-16 16:00N 29°46' W 095°05'1 1.0
2018-Feb-16 15:27N 29°45' W 095°06'1 0.1
2018-Feb-16 06:57N 29°46' W 095°06'0 0.0
2018-Feb-16 04:51N 29°46' W 095°06'0 0.0
2018-Feb-16 04:21N 29°46' W 095°06'0 0.0
2018-Feb-16 03:33N 29°46' W 095°06'0 0.0
2018-Feb-16 03:06N 29°46' W 095°06'0 0.0
2018-Feb-16 02:57N 29°46' W 095°06'0 0.0
2018-Feb-16 02:12N 29°46' W 095°06'0 0.0
2018-Feb-16 01:48N 29°46' W 095°06'0 0.0
2018-Feb-15 19:36N 29°46' W 095°06'0 2.7
2018-Feb-15 19:28N 29°46' W 095°06'1 0.6
2018-Feb-15 18:33N 29°46' W 095°07'1 0.2
2018-Feb-15 13:15N 29°47' W 095°06'1 2.1
2018-Feb-15 12:58N 29°46' W 095°06'1 1.3
2018-Feb-15 11:58N 29°45' W 095°06'0 0.0
2018-Feb-15 09:13N 29°45' W 095°06'0 0.0
2018-Feb-15 08:55N 29°45' W 095°06'0 0.0
2018-Feb-15 08:25N 29°45' W 095°06'0 0.0
2018-Feb-15 07:41N 29°45' W 095°06'0 0.0
2018-Feb-15 07:23N 29°45' W 095°06'0 0.0
2018-Feb-15 06:23N 29°45' W 095°06'0 0.0
2018-Feb-15 02:08N 29°45' W 095°06'0 0.0
2018-Feb-15 01:59N 29°45' W 095°06'0 0.0
2018-Feb-15 01:29N 29°45' W 095°06'0 0.1
2018-Feb-14 22:34N 29°45' W 095°06'0 2.7
2018-Feb-14 22:28N 29°45' W 095°06'1 1.7
2018-Feb-14 21:38N 29°46' W 095°06'0 0.1
2018-Feb-14 20:34N 29°47' W 095°06'0 0.1
2018-Feb-14 20:10N 29°47' W 095°06'0 0.1
2018-Feb-14 19:47N 29°47' W 095°06'0 0.0
2018-Feb-14 18:32N 29°47' W 095°06'0 0.3
2018-Feb-14 18:29N 29°47' W 095°06'0 1.0
2018-Feb-14 18:00N 29°46' W 095°06'2 4.7
2018-Feb-14 17:30N 29°45' W 095°04'1 1.4
2018-Feb-14 16:44N 29°44' W 095°03'0 0.0
2018-Feb-14 15:11N 29°44' W 095°03'0 0.0
2018-Feb-14 15:00N 29°44' W 095°03'0 0.0
2018-Feb-14 14:30N 29°44' W 095°03'0 0.0
2018-Feb-14 14:00N 29°44' W 095°03'0 0.0
2018-Feb-14 13:30N 29°44' W 095°03'0 0.0
2018-Feb-14 12:58N 29°44' W 095°03'0 0.0
2018-Feb-14 12:29N 29°44' W 095°03'0 0.0
2018-Feb-14 12:00N 29°44' W 095°03'0 0.0
2018-Feb-14 11:25N 29°44' W 095°03'0 0.0
2018-Feb-14 10:57N 29°44' W 095°03'0 0.0
2018-Feb-14 10:27N 29°44' W 095°03'0 0.0
2018-Feb-14 09:59N 29°44' W 095°03'0 0.0
2018-Feb-14 02:31N 29°44' W 095°03'0 3.2
2018-Feb-14 02:30N 29°44' W 095°03'0 0.1
2018-Feb-14 01:04N 29°44' W 095°03'0 0.0
2018-Feb-14 00:58N 29°44' W 095°03'0 0.0
2018-Feb-13 22:42N 29°44' W 095°03'1 5.1
2018-Feb-13 22:29N 29°45' W 095°04'3 2.0
2018-Feb-13 21:07N 29°47' W 095°06'0 0.1
2018-Feb-13 21:00N 29°47' W 095°06'1 1.2
2018-Feb-13 20:30N 29°46' W 095°06'3 4.7
2018-Feb-13 19:48N 29°44' W 095°09'0 0.8
2018-Feb-13 19:14N 29°45' W 095°10'0 0.7
2018-Feb-13 18:58N 29°44' W 095°10'6 3.5
2018-Feb-13 17:19N 29°47' W 095°04'1 3.1
2018-Feb-13 16:54N 29°46' W 095°05'1 1.6
2018-Feb-13 16:08N 29°46' W 095°06'0 0.3
2018-Feb-13 15:47N 29°46' W 095°06'0 0.3
2018-Feb-13 15:26N 29°46' W 095°06'0 0.1
2018-Feb-13 15:00N 29°46' W 095°06'  
Track history (hours):
 
Tides and Currents Weather Stations Pressure Air Temp Water Temp Dewpoint Dewpoint Depression Visibility Wind Speed Wind Dir Waves Ship Positions

Patrick J. Studdert

Owner: SHAMROCK MARINE L.L.C., Kingwood, TX. More information available from US FCC via Universal Licensing System and Coast Guard Vessel Documentation Center.

Last reported at 2018-Feb-23 09:59 UTC. Time now 2018-Feb-23 10:30 UTC.
Position N 29°44' W 095°03'.

Length 100 m; draft 2.9 m.

Type: Towing. MMSI: 367534690.

Date/timePositionNaut miles runAvg speedWind from/ knotsBaromVisibWave heightAir tempDewpointWater temp
2018-Feb-23 09:59N 29°44' W 095°03'0 0.4
2018-Feb-23 09:25N 29°44' W 095°03'0 0.0
2018-Feb-23 08:54N 29°44' W 095°03'0 0.0
2018-Feb-23 08:21N 29°44' W 095°03'0 0.0
2018-Feb-23 07:51N 29°44' W 095°03'1 3.9
2018-Feb-23 07:29N 29°45' W 095°04'3 0.4
2018-Feb-23 00:10N 29°44' W 095°07'0 0.0
2018-Feb-22 23:48N 29°44' W 095°07'2 5.8
2018-Feb-22 23:29N 29°44' W 095°09'1 1.4
2018-Feb-22 22:44N 29°45' W 095°10'0 0.0
2018-Feb-22 22:30N 29°45' W 095°10'0 0.0
2018-Feb-22 22:00N 29°45' W 095°10'0 0.0
2018-Feb-22 21:21N 29°45' W 095°10'0 0.0
2018-Feb-22 20:57N 29°45' W 095°10'0 0.0
2018-Feb-22 20:30N 29°45' W 095°10'0 0.0
2018-Feb-22 20:00N 29°45' W 095°10'0 0.0
2018-Feb-22 19:21N 29°45' W 095°10'0 0.0
2018-Feb-22 18:56N 29°45' W 095°10'0 0.0
2018-Feb-22 18:28N 29°45' W 095°10'0 0.0
2018-Feb-22 18:00N 29°45' W 095°10'0 0.0
2018-Feb-22 17:08N 29°45' W 095°10'0 0.0
2018-Feb-22 16:57N 29°45' W 095°10'0 0.0
2018-Feb-22 16:01N 29°45' W 095°10'0 0.0
2018-Feb-22 16:00N 29°45' W 095°10'0 0.0
2018-Feb-22 15:29N 29°45' W 095°10'0 0.0
2018-Feb-22 14:59N 29°45' W 095°10'0 0.0
2018-Feb-22 13:53N 29°45' W 095°10'0 0.0
2018-Feb-22 13:30N 29°45' W 095°10'0 0.3
2018-Feb-22 12:56N 29°45' W 095°10'3 6.0
2018-Feb-22 12:26N 29°44' W 095°07'2 0.3
2018-Feb-22 05:34N 29°46' W 095°06'0 2.6
2018-Feb-22 05:29N 29°46' W 095°06'2 3.2
2018-Feb-22 04:53N 29°45' W 095°04'2 4.8
2018-Feb-22 04:30N 29°44' W 095°03'2 3.8
2018-Feb-22 04:00N 29°43' W 095°01'2 4.9
2018-Feb-22 03:30N 29°41' W 094°59'3 5.0
2018-Feb-22 03:00N 29°39' W 094°58'3 5.0
2018-Feb-22 02:30N 29°36' W 094°57'2 4.6
2018-Feb-22 02:00N 29°34' W 094°56'2 4.4
2018-Feb-22 01:29N 29°33' W 094°54'2 4.6
2018-Feb-22 01:00N 29°31' W 094°53'9 3.7
2018-Feb-21 22:37N 29°22' W 094°50'1 5.9
2018-Feb-21 22:30N 29°22' W 094°51'18 0.5
2018-Feb-20 08:22N 29°40' W 094°58'1820.6
2018-Feb-20 07:29N 29°22' W 094°53'1 0.1
2018-Feb-20 00:28N 29°23' W 094°53'1 0.4
2018-Feb-19 21:41N 29°22' W 094°54'0 0.0
2018-Feb-19 21:05N 29°22' W 094°54'0 0.0
2018-Feb-19 20:56N 29°22' W 094°54'0 0.0
2018-Feb-19 20:29N 29°22' W 094°54'0 0.0
2018-Feb-19 19:56N 29°22' W 094°54'0 0.0
2018-Feb-19 19:20N 29°22' W 094°54'0 0.0
2018-Feb-19 18:08N 29°22' W 094°54'0 0.0
2018-Feb-19 17:35N 29°22' W 094°54'0 0.0
2018-Feb-19 17:26N 29°22' W 094°54'0 0.0
2018-Feb-19 16:59N 29°22' W 094°54'0 0.0
2018-Feb-19 16:17N 29°22' W 094°54'0 0.7
2018-Feb-19 16:00N 29°22' W 094°53'1 2.1
2018-Feb-19 15:25N 29°23' W 094°52'0 0.0
2018-Feb-19 14:58N 29°23' W 094°52'0 0.0
2018-Feb-19 14:04N 29°23' W 094°52'0 0.0
2018-Feb-19 13:58N 29°23' W 094°52'0 0.0
2018-Feb-19 13:25N 29°23' W 094°52'0 0.0
2018-Feb-19 12:58N 29°23' W 094°52'0 0.0
2018-Feb-19 12:10N 29°23' W 094°52'0 0.0
2018-Feb-19 11:43N 29°23' W 094°52'0 0.0
2018-Feb-19 11:19N 29°23' W 094°52'0 0.0
2018-Feb-19 10:58N 29°23' W 094°52'0 0.0
2018-Feb-19 10:22N 29°23' W 094°52'0 0.0
2018-Feb-19 09:49N 29°23' W 094°52'0 0.0
2018-Feb-19 09:22N 29°23' W 094°52'0 0.0
2018-Feb-19 08:55N 29°23' W 094°52'0 0.0
2018-Feb-19 08:22N 29°23' W 094°52'0 0.0
2018-Feb-19 07:55N 29°23' W 094°52'0 0.0
2018-Feb-19 07:28N 29°23' W 094°52'0 0.0
2018-Feb-19 06:53N 29°23' W 094°52'0 0.0
2018-Feb-19 06:29N 29°23' W 094°52'0 0.0
2018-Feb-19 05:56N 29°23' W 094°52'0 0.0
2018-Feb-19 05:26N 29°23' W 094°52'0 0.0
2018-Feb-19 04:56N 29°23' W 094°52'0 0.0
2018-Feb-19 04:30N 29°23' W 094°52'0 0.0
2018-Feb-19 03:57N 29°23' W 094°52'0 0.0
2018-Feb-18 23:43N 29°23' W 094°52'1 0.4
2018-Feb-18 20:05N 29°22' W 094°54'1 5.4
2018-Feb-18 19:59N 29°22' W 094°53'1 1.2
2018-Feb-18 19:08N 29°23' W 094°52'0 0.0
2018-Feb-18 18:50N 29°23' W 094°52'0 0.0
2018-Feb-18 17:56N 29°23' W 094°52'0 0.0
2018-Feb-18 17:23N 29°23' W 094°52'0 0.0
2018-Feb-18 16:59N 29°23' W 094°52'0 0.0
2018-Feb-18 16:20N 29°23' W 094°52'0 0.0
2018-Feb-18 15:59N 29°23' W 094°52'0 0.0
2018-Feb-18 14:35N 29°23' W 094°52'0 0.0
2018-Feb-18 11:38N 29°23' W 094°52'0 0.0
2018-Feb-18 11:08N 29°23' W 094°52'0 0.0
2018-Feb-18 10:47N 29°23' W 094°52'0 0.0
2018-Feb-18 07:50N 29°23' W 094°52'0 0.0
2018-Feb-18 07:14N 29°23' W 094°52'0 0.0
2018-Feb-18 06:59N 29°23' W 094°52'0 0.0
2018-Feb-17 21:26N 29°23' W 094°52'0 0.0
2018-Feb-17 11:29N 29°23' W 094°52'0 0.0
2018-Feb-17 09:53N 29°23' W 094°52'0 0.0
2018-Feb-17 09:11N 29°23' W 094°52'0 0.0
2018-Feb-17 08:51N 29°23' W 094°52'0 0.0
2018-Feb-17 07:54N 29°23' W 094°52'0 0.0
2018-Feb-17 06:51N 29°23' W 094°52'0 0.0
2018-Feb-17 06:24N 29°23' W 094°52'0 0.0
2018-Feb-17 06:00N 29°23' W 094°52'0 0.0
2018-Feb-17 04:24N 29°23' W 094°52'0 0.0
2018-Feb-17 04:00N 29°23' W 094°52'0 0.0
2018-Feb-17 03:27N 29°23' W 094°52'0 0.0
2018-Feb-17 02:57N 29°23' W 094°52'0 0.0
2018-Feb-17 02:18N 29°23' W 094°52'0 0.0
2018-Feb-17 01:51N 29°23' W 094°52'0 0.0
2018-Feb-17 01:15N 29°23' W 094°52'0 0.0
2018-Feb-17 00:51N 29°23' W 094°52'0 0.0
2018-Feb-17 00:24N 29°23' W 094°52'0 0.0
2018-Feb-16 23:57N 29°23' W 094°52'0 0.0
2018-Feb-16 23:27N 29°23' W 094°52'1 3.0
2018-Feb-16 23:00N 29°22' W 094°51'4 2.1
2018-Feb-16 21:09N 29°26' W 094°50'0 1.7
2018-Feb-16 21:00N 29°27' W 094°50'3 5.3
2018-Feb-16 20:30N 29°29' W 094°52'4 7.4
2018-Feb-16 20:00N 29°32' W 094°54'3 6.0
2018-Feb-16 19:30N 29°34' W 094°56'4 7.8
2018-Feb-16 19:00N 29°38' W 094°58'4 8.4
2018-Feb-16 18:30N 29°42' W 094°60'3 6.9
2018-Feb-16 18:00N 29°44' W 095°03'3 6.3
2018-Feb-16 17:30N 29°46' W 095°06'1 1.1
2018-Feb-16 17:00N 29°46' W 095°06'1 1.3
2018-Feb-16 16:24N 29°46' W 095°05'0 0.0
2018-Feb-16 16:00N 29°46' W 095°05'1 1.0
2018-Feb-16 15:27N 29°45' W 095°06'1 0.1
2018-Feb-16 06:57N 29°46' W 095°06'0 0.0
2018-Feb-16 04:51N 29°46' W 095°06'0 0.0
2018-Feb-16 04:21N 29°46' W 095°06'0 0.0
2018-Feb-16 03:33N 29°46' W 095°06'0 0.0
2018-Feb-16 03:06N 29°46' W 095°06'0 0.0
2018-Feb-16 02:57N 29°46' W 095°06'0 0.0
2018-Feb-16 02:12N 29°46' W 095°06'0 0.0
2018-Feb-16 01:48N 29°46' W 095°06'0 0.0
2018-Feb-15 19:36N 29°46' W 095°06'0 2.7
2018-Feb-15 19:28N 29°46' W 095°06'1 0.6
2018-Feb-15 18:33N 29°46' W 095°07'1 0.2
2018-Feb-15 13:15N 29°47' W 095°06'1 2.1
2018-Feb-15 12:58N 29°46' W 095°06'1 1.3
2018-Feb-15 11:58N 29°45' W 095°06'0 0.0
2018-Feb-15 09:13N 29°45' W 095°06'0 0.0
2018-Feb-15 08:55N 29°45' W 095°06'0 0.0
2018-Feb-15 08:25N 29°45' W 095°06'0 0.0
2018-Feb-15 07:41N 29°45' W 095°06'0 0.0
2018-Feb-15 07:23N 29°45' W 095°06'0 0.0
2018-Feb-15 06:23N 29°45' W 095°06'0 0.0
2018-Feb-15 02:08N 29°45' W 095°06'0 0.0
2018-Feb-15 01:59N 29°45' W 095°06'0 0.0
2018-Feb-15 01:29N 29°45' W 095°06'0 0.1
2018-Feb-14 22:34N 29°45' W 095°06'0 2.7
2018-Feb-14 22:28N 29°45' W 095°06'1 1.7
2018-Feb-14 21:38N 29°46' W 095°06'0 0.1
2018-Feb-14 20:34N 29°47' W 095°06'0 0.1
2018-Feb-14 20:10N 29°47' W 095°06'0 0.1
2018-Feb-14 19:47N 29°47' W 095°06'0 0.0
2018-Feb-14 18:32N 29°47' W 095°06'0 0.3
2018-Feb-14 18:29N 29°47' W 095°06'0 1.0
2018-Feb-14 18:00N 29°46' W 095°06'2 4.7
2018-Feb-14 17:30N 29°45' W 095°04'1 1.4
2018-Feb-14 16:44N 29°44' W 095°03'0 0.0
2018-Feb-14 15:11N 29°44' W 095°03'0 0.0
2018-Feb-14 15:00N 29°44' W 095°03'0 0.0
2018-Feb-14 14:30N 29°44' W 095°03'0 0.0
2018-Feb-14 14:00N 29°44' W 095°03'0 0.0
2018-Feb-14 13:30N 29°44' W 095°03'0 0.0
2018-Feb-14 12:58N 29°44' W 095°03'0 0.0
2018-Feb-14 12:29N 29°44' W 095°03'0 0.0
2018-Feb-14 12:00N 29°44' W 095°03'0 0.0
2018-Feb-14 11:25N 29°44' W 095°03'0 0.0
2018-Feb-14 10:57N 29°44' W 095°03'0 0.0
2018-Feb-14 10:27N 29°44' W 095°03'0 0.0
2018-Feb-14 09:59N 29°44' W 095°03'0 0.0
2018-Feb-14 02:31N 29°44' W 095°03'0 3.2
2018-Feb-14 02:30N 29°44' W 095°03'0 0.1
2018-Feb-14 01:04N 29°44' W 095°03'0 0.0
2018-Feb-14 00:58N 29°44' W 095°03'0 0.0
2018-Feb-13 22:42N 29°44' W 095°03'1 5.1
2018-Feb-13 22:29N 29°45' W 095°04'3 2.0
2018-Feb-13 21:07N 29°47' W 095°06'0 0.1
2018-Feb-13 21:00N 29°47' W 095°06'1 1.2
2018-Feb-13 20:30N 29°46' W 095°06'3 4.7
2018-Feb-13 19:48N 29°44' W 095°09'0 0.8
2018-Feb-13 19:14N 29°45' W 095°10'0 0.7
2018-Feb-13 18:58N 29°44' W 095°10'6 3.5
2018-Feb-13 17:19N 29°47' W 095°04'1 3.1
2018-Feb-13 16:54N 29°46' W 095°05'1 1.6
2018-Feb-13 16:08N 29°46' W 095°06'0 0.3
2018-Feb-13 15:47N 29°46' W 095°06'0 0.3
2018-Feb-13 15:26N 29°46' W 095°06'0 0.1
2018-Feb-13 15:00N 29°46' W 095°06'  

Dump ship's entire track history